sensor_id;sensor_type;location;lat;lon;timestamp;P1;durP1;ratioP1;P2;durP2;ratioP2
46597;SDS011;32318;48.858;8.252;2023-03-04T00:00:04;43.33;;;17.25;;
46597;SDS011;32318;48.858;8.252;2023-03-04T00:08:05;51.78;;;15.65;;
46597;SDS011;32318;48.858;8.252;2023-03-04T00:16:05;38.47;;;13.90;;
46597;SDS011;32318;48.858;8.252;2023-03-04T00:24:06;50.95;;;16.58;;
46597;SDS011;32318;48.858;8.252;2023-03-04T00:32:06;51.80;;;16.75;;
46597;SDS011;32318;48.858;8.252;2023-03-04T00:40:07;56.35;;;17.98;;
46597;SDS011;32318;48.858;8.252;2023-03-04T00:48:08;53.88;;;18.85;;
46597;SDS011;32318;48.858;8.252;2023-03-04T00:56:08;59.75;;;18.25;;
46597;SDS011;32318;48.858;8.252;2023-03-04T01:04:08;44.90;;;13.68;;
46597;SDS011;32318;48.858;8.252;2023-03-04T01:12:08;51.15;;;18.17;;
46597;SDS011;32318;48.858;8.252;2023-03-04T01:20:09;50.90;;;17.52;;
46597;SDS011;32318;48.858;8.252;2023-03-04T01:28:10;60.72;;;18.63;;
46597;SDS011;32318;48.858;8.252;2023-03-04T01:36:10;55.80;;;18.23;;
46597;SDS011;32318;48.858;8.252;2023-03-04T01:44:11;61.97;;;18.80;;
46597;SDS011;32318;48.858;8.252;2023-03-04T01:52:12;62.47;;;19.48;;
46597;SDS011;32318;48.858;8.252;2023-03-04T02:00:23;71.00;;;19.65;;
46597;SDS011;32318;48.858;8.252;2023-03-04T02:08:27;72.78;;;21.85;;
46597;SDS011;32318;48.858;8.252;2023-03-04T02:16:27;68.25;;;22.00;;
46597;SDS011;32318;48.858;8.252;2023-03-04T02:24:38;68.13;;;21.08;;
46597;SDS011;32318;48.858;8.252;2023-03-04T02:32:42;82.65;;;24.15;;
46597;SDS011;32318;48.858;8.252;2023-03-04T02:40:43;95.60;;;26.73;;
46597;SDS011;32318;48.858;8.252;2023-03-04T02:48:48;87.50;;;25.85;;
46597;SDS011;32318;48.858;8.252;2023-03-04T02:56:50;89.22;;;26.67;;
46597;SDS011;32318;48.858;8.252;2023-03-04T03:04:52;94.00;;;25.25;;
46597;SDS011;32318;48.858;8.252;2023-03-04T03:12:52;79.80;;;24.25;;
46597;SDS011;32318;48.858;8.252;2023-03-04T03:20:52;80.53;;;23.27;;
46597;SDS011;32318;48.858;8.252;2023-03-04T03:28:53;89.00;;;23.73;;
46597;SDS011;32318;48.858;8.252;2023-03-04T03:36:53;88.10;;;26.15;;
46597;SDS011;32318;48.858;8.252;2023-03-04T03:44:53;96.55;;;25.80;;
46597;SDS011;32318;48.858;8.252;2023-03-04T03:52:54;89.07;;;23.23;;
46597;SDS011;32318;48.858;8.252;2023-03-04T04:00:55;93.57;;;28.08;;
46597;SDS011;32318;48.858;8.252;2023-03-04T04:08:55;87.75;;;25.55;;
46597;SDS011;32318;48.858;8.252;2023-03-04T04:16:55;99.78;;;26.73;;
46597;SDS011;32318;48.858;8.252;2023-03-04T04:24:56;79.60;;;23.83;;
46597;SDS011;32318;48.858;8.252;2023-03-04T04:32:56;95.28;;;25.83;;
46597;SDS011;32318;48.858;8.252;2023-03-04T04:41:00;96.28;;;25.00;;
46597;SDS011;32318;48.858;8.252;2023-03-04T04:49:00;96.13;;;26.77;;
46597;SDS011;32318;48.858;8.252;2023-03-04T04:57:01;82.33;;;23.87;;
46597;SDS011;32318;48.858;8.252;2023-03-04T05:05:02;94.47;;;25.08;;
46597;SDS011;32318;48.858;8.252;2023-03-04T05:13:03;87.80;;;24.52;;
46597;SDS011;32318;48.858;8.252;2023-03-04T05:21:03;87.60;;;24.85;;
46597;SDS011;32318;48.858;8.252;2023-03-04T05:29:03;96.55;;;25.40;;
46597;SDS011;32318;48.858;8.252;2023-03-04T05:37:04;91.43;;;24.83;;
46597;SDS011;32318;48.858;8.252;2023-03-04T05:45:04;97.00;;;26.25;;
46597;SDS011;32318;48.858;8.252;2023-03-04T05:53:05;93.07;;;26.95;;
46597;SDS011;32318;48.858;8.252;2023-03-04T06:01:06;87.53;;;24.60;;
46597;SDS011;32318;48.858;8.252;2023-03-04T06:09:06;77.10;;;23.90;;
46597;SDS011;32318;48.858;8.252;2023-03-04T06:17:06;81.28;;;22.65;;
46597;SDS011;32318;48.858;8.252;2023-03-04T06:25:08;76.03;;;22.15;;
46597;SDS011;32318;48.858;8.252;2023-03-04T06:33:09;72.43;;;24.15;;
46597;SDS011;32318;48.858;8.252;2023-03-04T06:41:09;64.75;;;20.48;;
46597;SDS011;32318;48.858;8.252;2023-03-04T06:49:11;69.95;;;21.70;;
46597;SDS011;32318;48.858;8.252;2023-03-04T06:57:11;56.22;;;19.15;;
46597;SDS011;32318;48.858;8.252;2023-03-04T07:05:12;55.47;;;19.80;;
46597;SDS011;32318;48.858;8.252;2023-03-04T07:13:12;54.22;;;19.60;;
46597;SDS011;32318;48.858;8.252;2023-03-04T07:21:13;60.00;;;20.65;;
46597;SDS011;32318;48.858;8.252;2023-03-04T07:29:14;56.40;;;20.10;;
46597;SDS011;32318;48.858;8.252;2023-03-04T07:37:14;62.17;;;21.55;;
46597;SDS011;32318;48.858;8.252;2023-03-04T07:45:15;61.08;;;20.70;;
46597;SDS011;32318;48.858;8.252;2023-03-04T07:53:15;56.80;;;21.33;;
46597;SDS011;32318;48.858;8.252;2023-03-04T08:01:16;67.63;;;22.00;;
46597;SDS011;32318;48.858;8.252;2023-03-04T08:09:18;80.78;;;25.65;;
46597;SDS011;32318;48.858;8.252;2023-03-04T08:17:19;78.50;;;24.70;;
46597;SDS011;32318;48.858;8.252;2023-03-04T08:25:19;79.55;;;25.65;;
46597;SDS011;32318;48.858;8.252;2023-03-04T08:33:19;80.90;;;24.85;;
46597;SDS011;32318;48.858;8.252;2023-03-04T08:41:20;75.18;;;25.25;;
46597;SDS011;32318;48.858;8.252;2023-03-04T08:49:21;77.47;;;25.83;;
46597;SDS011;32318;48.858;8.252;2023-03-04T08:57:22;83.32;;;25.10;;
46597;SDS011;32318;48.858;8.252;2023-03-04T09:05:22;76.65;;;28.10;;
46597;SDS011;32318;48.858;8.252;2023-03-04T09:13:22;76.55;;;25.73;;
46597;SDS011;32318;48.858;8.252;2023-03-04T09:21:23;81.20;;;28.85;;
46597;SDS011;32318;48.858;8.252;2023-03-04T09:29:24;86.93;;;30.27;;
46597;SDS011;32318;48.858;8.252;2023-03-04T09:37:24;82.97;;;31.00;;
46597;SDS011;32318;48.858;8.252;2023-03-04T09:45:26;82.10;;;30.23;;
46597;SDS011;32318;48.858;8.252;2023-03-04T09:53:44;85.88;;;33.08;;
46597;SDS011;32318;48.858;8.252;2023-03-04T10:01:54;107.85;;;34.55;;
46597;SDS011;32318;48.858;8.252;2023-03-04T10:10:02;84.07;;;30.17;;
46597;SDS011;32318;48.858;8.252;2023-03-04T10:18:21;89.70;;;32.38;;
46597;SDS011;32318;48.858;8.252;2023-03-04T10:26:28;71.13;;;24.92;;
46597;SDS011;32318;48.858;8.252;2023-03-04T10:34:31;84.07;;;27.83;;
46597;SDS011;32318;48.858;8.252;2023-03-04T10:42:32;94.70;;;29.27;;
46597;SDS011;32318;48.858;8.252;2023-03-04T10:50:36;89.07;;;25.80;;
46597;SDS011;32318;48.858;8.252;2023-03-04T10:58:36;83.93;;;28.83;;
46597;SDS011;32318;48.858;8.252;2023-03-04T11:06:39;94.82;;;29.67;;
46597;SDS011;32318;48.858;8.252;2023-03-04T11:22:48;86.50;;;28.83;;
46597;SDS011;32318;48.858;8.252;2023-03-04T11:38:54;109.25;;;33.25;;
46597;SDS011;32318;48.858;8.252;2023-03-04T11:55:28;85.60;;;24.60;;
46597;SDS011;32318;48.858;8.252;2023-03-04T12:20:26;82.97;;;22.30;;
46597;SDS011;32318;48.858;8.252;2023-03-04T12:45:31;84.53;;;24.60;;
46597;SDS011;32318;48.858;8.252;2023-03-04T12:53:47;81.25;;;25.35;;
46597;SDS011;32318;48.858;8.252;2023-03-04T13:10:32;79.70;;;21.63;;
46597;SDS011;32318;48.858;8.252;2023-03-04T13:18:36;77.38;;;23.05;;
46597;SDS011;32318;48.858;8.252;2023-03-04T13:26:38;72.97;;;24.02;;
46597;SDS011;32318;48.858;8.252;2023-03-04T13:34:43;86.00;;;24.52;;
46597;SDS011;32318;48.858;8.252;2023-03-04T13:42:46;73.78;;;23.88;;
46597;SDS011;32318;48.858;8.252;2023-03-04T13:50:47;76.50;;;25.38;;
46597;SDS011;32318;48.858;8.252;2023-03-04T13:58:52;61.30;;;21.25;;
46597;SDS011;32318;48.858;8.252;2023-03-04T14:23:25;70.30;;;21.70;;
46597;SDS011;32318;48.858;8.252;2023-03-04T14:31:26;71.93;;;22.95;;
46597;SDS011;32318;48.858;8.252;2023-03-04T14:39:29;70.95;;;23.60;;
46597;SDS011;32318;48.858;8.252;2023-03-04T14:47:36;78.72;;;21.92;;
46597;SDS011;32318;48.858;8.252;2023-03-04T14:55:39;75.72;;;22.15;;
46597;SDS011;32318;48.858;8.252;2023-03-04T15:04:01;74.30;;;21.33;;
46597;SDS011;32318;48.858;8.252;2023-03-04T15:12:07;69.47;;;20.98;;
46597;SDS011;32318;48.858;8.252;2023-03-04T15:28:18;63.72;;;21.35;;
46597;SDS011;32318;48.858;8.252;2023-03-04T15:36:20;67.40;;;20.85;;
46597;SDS011;32318;48.858;8.252;2023-03-04T15:44:22;58.58;;;20.55;;
46597;SDS011;32318;48.858;8.252;2023-03-04T15:52:22;73.88;;;21.73;;
46597;SDS011;32318;48.858;8.252;2023-03-04T16:00:23;70.57;;;19.25;;
46597;SDS011;32318;48.858;8.252;2023-03-04T16:08:23;59.75;;;18.17;;
46597;SDS011;32318;48.858;8.252;2023-03-04T16:16:24;74.32;;;19.05;;
46597;SDS011;32318;48.858;8.252;2023-03-04T16:24:24;60.28;;;19.75;;
46597;SDS011;32318;48.858;8.252;2023-03-04T16:32:25;66.28;;;20.17;;
46597;SDS011;32318;48.858;8.252;2023-03-04T16:40:26;62.70;;;21.67;;
46597;SDS011;32318;48.858;8.252;2023-03-04T16:48:29;60.03;;;20.75;;
46597;SDS011;32318;48.858;8.252;2023-03-04T16:56:29;81.47;;;23.40;;
46597;SDS011;32318;48.858;8.252;2023-03-04T17:04:29;70.10;;;21.98;;
46597;SDS011;32318;48.858;8.252;2023-03-04T17:12:29;82.32;;;23.83;;
46597;SDS011;32318;48.858;8.252;2023-03-04T17:20:30;68.85;;;21.30;;
46597;SDS011;32318;48.858;8.252;2023-03-04T17:28:30;69.78;;;22.25;;
46597;SDS011;32318;48.858;8.252;2023-03-04T17:36:31;72.43;;;21.42;;
46597;SDS011;32318;48.858;8.252;2023-03-04T17:44:31;75.50;;;21.70;;
46597;SDS011;32318;48.858;8.252;2023-03-04T17:52:32;57.80;;;20.42;;
46597;SDS011;32318;48.858;8.252;2023-03-04T18:00:33;63.90;;;20.17;;
46597;SDS011;32318;48.858;8.252;2023-03-04T18:08:33;76.57;;;22.42;;
46597;SDS011;32318;48.858;8.252;2023-03-04T18:16:33;67.95;;;21.35;;
46597;SDS011;32318;48.858;8.252;2023-03-04T18:24:34;64.22;;;19.95;;
46597;SDS011;32318;48.858;8.252;2023-03-04T18:32:34;71.63;;;24.05;;
46597;SDS011;32318;48.858;8.252;2023-03-04T18:40:37;137.75;;;54.83;;
46597;SDS011;32318;48.858;8.252;2023-03-04T18:48:42;78.88;;;24.52;;
46597;SDS011;32318;48.858;8.252;2023-03-04T18:56:52;79.00;;;27.42;;
46597;SDS011;32318;48.858;8.252;2023-03-04T19:04:56;70.72;;;23.83;;
46597;SDS011;32318;48.858;8.252;2023-03-04T19:13:01;78.67;;;21.97;;
46597;SDS011;32318;48.858;8.252;2023-03-04T19:21:02;78.35;;;22.27;;
46597;SDS011;32318;48.858;8.252;2023-03-04T19:29:02;75.35;;;23.02;;
46597;SDS011;32318;48.858;8.252;2023-03-04T19:37:04;87.68;;;28.70;;
46597;SDS011;32318;48.858;8.252;2023-03-04T19:45:04;107.13;;;35.60;;
46597;SDS011;32318;48.858;8.252;2023-03-04T19:53:08;88.85;;;36.30;;
46597;SDS011;32318;48.858;8.252;2023-03-04T20:01:23;79.00;;;28.98;;
46597;SDS011;32318;48.858;8.252;2023-03-04T20:09:28;70.57;;;25.58;;
46597;SDS011;32318;48.858;8.252;2023-03-04T20:17:28;75.38;;;24.48;;
46597;SDS011;32318;48.858;8.252;2023-03-04T20:25:28;88.18;;;26.58;;
46597;SDS011;32318;48.858;8.252;2023-03-04T20:33:30;87.13;;;27.17;;
46597;SDS011;32318;48.858;8.252;2023-03-04T20:41:31;79.95;;;23.48;;
46597;SDS011;32318;48.858;8.252;2023-03-04T20:49:31;76.95;;;24.38;;
46597;SDS011;32318;48.858;8.252;2023-03-04T20:57:32;69.33;;;23.60;;
46597;SDS011;32318;48.858;8.252;2023-03-04T21:05:32;71.38;;;23.83;;
46597;SDS011;32318;48.858;8.252;2023-03-04T21:13:32;70.65;;;23.00;;
46597;SDS011;32318;48.858;8.252;2023-03-04T21:21:35;65.15;;;22.52;;
46597;SDS011;32318;48.858;8.252;2023-03-04T21:29:36;73.93;;;23.90;;
46597;SDS011;32318;48.858;8.252;2023-03-04T21:37:36;71.53;;;21.70;;
46597;SDS011;32318;48.858;8.252;2023-03-04T21:45:36;66.85;;;22.02;;
46597;SDS011;32318;48.858;8.252;2023-03-04T21:53:37;77.30;;;23.08;;
46597;SDS011;32318;48.858;8.252;2023-03-04T22:01:37;83.93;;;22.08;;
46597;SDS011;32318;48.858;8.252;2023-03-04T22:09:38;77.95;;;22.70;;
46597;SDS011;32318;48.858;8.252;2023-03-04T22:17:38;71.00;;;21.58;;
46597;SDS011;32318;48.858;8.252;2023-03-04T22:25:39;69.60;;;21.90;;
46597;SDS011;32318;48.858;8.252;2023-03-04T22:33:40;66.72;;;20.02;;
46597;SDS011;32318;48.858;8.252;2023-03-04T22:41:40;72.05;;;21.88;;
46597;SDS011;32318;48.858;8.252;2023-03-04T22:49:41;71.43;;;19.77;;
46597;SDS011;32318;48.858;8.252;2023-03-04T22:57:41;63.75;;;19.52;;
46597;SDS011;32318;48.858;8.252;2023-03-04T23:05:41;68.20;;;20.07;;
46597;SDS011;32318;48.858;8.252;2023-03-04T23:13:42;70.88;;;20.17;;
46597;SDS011;32318;48.858;8.252;2023-03-04T23:21:43;66.60;;;21.83;;
46597;SDS011;32318;48.858;8.252;2023-03-04T23:29:43;60.38;;;21.23;;
46597;SDS011;32318;48.858;8.252;2023-03-04T23:37:43;75.03;;;21.35;;
46597;SDS011;32318;48.858;8.252;2023-03-04T23:45:43;62.83;;;19.75;;
46597;SDS011;32318;48.858;8.252;2023-03-04T23:53:44;69.63;;;21.30;;
